sensor_id;sensor_type;location;lat;lon;timestamp;P1;durP1;ratioP1;P2;durP2;ratioP2
37895;SDS011;23733;53.254;10.430;2023-06-10T00:02:22;7.60;;;3.07;;
37895;SDS011;23733;53.254;10.430;2023-06-10T00:04:48;9.70;;;3.33;;
37895;SDS011;23733;53.254;10.430;2023-06-10T00:07:15;7.23;;;3.70;;
37895;SDS011;23733;53.254;10.430;2023-06-10T00:09:41;8.00;;;3.40;;
37895;SDS011;23733;53.254;10.430;2023-06-10T00:12:08;12.63;;;3.50;;
37895;SDS011;23733;53.254;10.430;2023-06-10T00:14:38;10.50;;;3.87;;
37895;SDS011;23733;53.254;10.430;2023-06-10T00:17:06;9.13;;;3.60;;
37895;SDS011;23733;53.254;10.430;2023-06-10T00:19:34;12.83;;;3.93;;
37895;SDS011;23733;53.254;10.430;2023-06-10T00:22:00;9.27;;;3.40;;
37895;SDS011;23733;53.254;10.430;2023-06-10T00:24:28;11.40;;;3.47;;
37895;SDS011;23733;53.254;10.430;2023-06-10T00:26:54;8.13;;;3.13;;
37895;SDS011;23733;53.254;10.430;2023-06-10T00:29:20;8.77;;;3.50;;
37895;SDS011;23733;53.254;10.430;2023-06-10T00:31:46;6.10;;;3.20;;
37895;SDS011;23733;53.254;10.430;2023-06-10T00:34:12;7.23;;;3.43;;
37895;SDS011;23733;53.254;10.430;2023-06-10T00:36:39;7.10;;;3.43;;
37895;SDS011;23733;53.254;10.430;2023-06-10T00:39:05;6.77;;;3.63;;
37895;SDS011;23733;53.254;10.430;2023-06-10T00:41:32;9.93;;;3.50;;
37895;SDS011;23733;53.254;10.430;2023-06-10T00:43:59;7.23;;;3.70;;
37895;SDS011;23733;53.254;10.430;2023-06-10T00:46:25;8.33;;;3.33;;
37895;SDS011;23733;53.254;10.430;2023-06-10T00:48:52;9.53;;;3.87;;
37895;SDS011;23733;53.254;10.430;2023-06-10T00:51:18;9.53;;;3.77;;
37895;SDS011;23733;53.254;10.430;2023-06-10T00:53:45;12.67;;;3.37;;
37895;SDS011;23733;53.254;10.430;2023-06-10T00:56:11;5.67;;;2.93;;
37895;SDS011;23733;53.254;10.430;2023-06-10T00:58:39;6.37;;;3.20;;
37895;SDS011;23733;53.254;10.430;2023-06-10T01:01:05;9.10;;;3.37;;
37895;SDS011;23733;53.254;10.430;2023-06-10T01:03:31;8.63;;;3.70;;
37895;SDS011;23733;53.254;10.430;2023-06-10T01:08:46;8.57;;;3.53;;
37895;SDS011;23733;53.254;10.430;2023-06-10T01:11:34;9.57;;;3.30;;
37895;SDS011;23733;53.254;10.430;2023-06-10T01:14:17;7.40;;;3.43;;
37895;SDS011;23733;53.254;10.430;2023-06-10T01:16:43;7.17;;;3.20;;
37895;SDS011;23733;53.254;10.430;2023-06-10T01:19:11;13.93;;;3.13;;
37895;SDS011;23733;53.254;10.430;2023-06-10T01:21:39;7.70;;;3.40;;
37895;SDS011;23733;53.254;10.430;2023-06-10T01:24:06;13.07;;;3.60;;
37895;SDS011;23733;53.254;10.430;2023-06-10T01:26:36;10.43;;;3.70;;
37895;SDS011;23733;53.254;10.430;2023-06-10T01:31:49;10.07;;;3.07;;
37895;SDS011;23733;53.254;10.430;2023-06-10T01:34:18;7.67;;;3.27;;
37895;SDS011;23733;53.254;10.430;2023-06-10T01:36:46;8.67;;;3.43;;
37895;SDS011;23733;53.254;10.430;2023-06-10T01:39:14;12.53;;;3.73;;
37895;SDS011;23733;53.254;10.430;2023-06-10T01:41:46;10.13;;;3.47;;
37895;SDS011;23733;53.254;10.430;2023-06-10T01:44:17;6.33;;;3.30;;
37895;SDS011;23733;53.254;10.430;2023-06-10T01:46:44;10.03;;;3.67;;
37895;SDS011;23733;53.254;10.430;2023-06-10T01:49:10;9.53;;;3.43;;
37895;SDS011;23733;53.254;10.430;2023-06-10T01:51:36;8.87;;;3.30;;
37895;SDS011;23733;53.254;10.430;2023-06-10T01:54:02;9.77;;;3.60;;
37895;SDS011;23733;53.254;10.430;2023-06-10T01:56:28;8.13;;;3.00;;
37895;SDS011;23733;53.254;10.430;2023-06-10T01:58:55;8.87;;;3.30;;
37895;SDS011;23733;53.254;10.430;2023-06-10T02:01:24;8.90;;;3.20;;
37895;SDS011;23733;53.254;10.430;2023-06-10T02:03:51;12.30;;;3.33;;
37895;SDS011;23733;53.254;10.430;2023-06-10T02:06:17;7.13;;;3.80;;
37895;SDS011;23733;53.254;10.430;2023-06-10T02:08:43;8.37;;;3.07;;
37895;SDS011;23733;53.254;10.430;2023-06-10T02:11:10;12.40;;;3.47;;
37895;SDS011;23733;53.254;10.430;2023-06-10T02:13:37;10.23;;;3.40;;
37895;SDS011;23733;53.254;10.430;2023-06-10T02:16:04;11.33;;;3.20;;
37895;SDS011;23733;53.254;10.430;2023-06-10T02:18:31;8.50;;;3.43;;
37895;SDS011;23733;53.254;10.430;2023-06-10T02:20:57;9.93;;;3.23;;
37895;SDS011;23733;53.254;10.430;2023-06-10T02:23:23;8.13;;;3.47;;
37895;SDS011;23733;53.254;10.430;2023-06-10T02:25:49;6.77;;;2.70;;
37895;SDS011;23733;53.254;10.430;2023-06-10T02:28:15;9.63;;;2.70;;
37895;SDS011;23733;53.254;10.430;2023-06-10T02:30:41;9.40;;;3.13;;
37895;SDS011;23733;53.254;10.430;2023-06-10T02:33:08;8.43;;;2.90;;
37895;SDS011;23733;53.254;10.430;2023-06-10T02:35:40;9.30;;;3.00;;
37895;SDS011;23733;53.254;10.430;2023-06-10T02:38:06;8.93;;;3.13;;
37895;SDS011;23733;53.254;10.430;2023-06-10T02:40:32;12.13;;;3.73;;
37895;SDS011;23733;53.254;10.430;2023-06-10T02:42:58;9.23;;;2.93;;
37895;SDS011;23733;53.254;10.430;2023-06-10T02:45:24;9.80;;;2.93;;
37895;SDS011;23733;53.254;10.430;2023-06-10T02:47:51;6.83;;;2.83;;
37895;SDS011;23733;53.254;10.430;2023-06-10T02:50:17;7.50;;;2.90;;
37895;SDS011;23733;53.254;10.430;2023-06-10T02:52:43;6.13;;;2.47;;
37895;SDS011;23733;53.254;10.430;2023-06-10T02:55:09;5.47;;;2.50;;
37895;SDS011;23733;53.254;10.430;2023-06-10T02:57:36;10.03;;;3.37;;
37895;SDS011;23733;53.254;10.430;2023-06-10T03:00:02;7.27;;;3.17;;
37895;SDS011;23733;53.254;10.430;2023-06-10T03:02:34;6.50;;;2.87;;
37895;SDS011;23733;53.254;10.430;2023-06-10T03:05:02;8.40;;;2.93;;
37895;SDS011;23733;53.254;10.430;2023-06-10T03:07:28;9.03;;;2.90;;
37895;SDS011;23733;53.254;10.430;2023-06-10T03:09:55;10.00;;;2.67;;
37895;SDS011;23733;53.254;10.430;2023-06-10T03:12:21;7.17;;;2.63;;
37895;SDS011;23733;53.254;10.430;2023-06-10T03:14:48;7.17;;;2.80;;
37895;SDS011;23733;53.254;10.430;2023-06-10T03:17:14;11.83;;;2.70;;
37895;SDS011;23733;53.254;10.430;2023-06-10T03:19:40;7.63;;;2.73;;
37895;SDS011;23733;53.254;10.430;2023-06-10T03:22:10;8.93;;;2.83;;
37895;SDS011;23733;53.254;10.430;2023-06-10T03:24:37;6.03;;;2.50;;
37895;SDS011;23733;53.254;10.430;2023-06-10T03:27:06;6.43;;;2.37;;
37895;SDS011;23733;53.254;10.430;2023-06-10T03:29:32;5.27;;;2.57;;
37895;SDS011;23733;53.254;10.430;2023-06-10T03:31:59;5.10;;;2.77;;
37895;SDS011;23733;53.254;10.430;2023-06-10T03:34:25;7.63;;;3.10;;
37895;SDS011;23733;53.254;10.430;2023-06-10T03:36:51;7.60;;;2.83;;
37895;SDS011;23733;53.254;10.430;2023-06-10T03:39:18;5.90;;;2.80;;
37895;SDS011;23733;53.254;10.430;2023-06-10T03:41:44;9.50;;;2.77;;
37895;SDS011;23733;53.254;10.430;2023-06-10T03:44:10;7.83;;;2.97;;
37895;SDS011;23733;53.254;10.430;2023-06-10T03:46:36;6.73;;;2.80;;
37895;SDS011;23733;53.254;10.430;2023-06-10T03:49:03;4.30;;;2.60;;
37895;SDS011;23733;53.254;10.430;2023-06-10T03:51:29;5.93;;;2.20;;
37895;SDS011;23733;53.254;10.430;2023-06-10T03:53:55;5.70;;;2.63;;
37895;SDS011;23733;53.254;10.430;2023-06-10T03:56:21;11.03;;;3.07;;
37895;SDS011;23733;53.254;10.430;2023-06-10T03:58:47;7.57;;;2.87;;
37895;SDS011;23733;53.254;10.430;2023-06-10T04:01:13;12.97;;;2.80;;
37895;SDS011;23733;53.254;10.430;2023-06-10T04:03:39;11.87;;;2.80;;
37895;SDS011;23733;53.254;10.430;2023-06-10T04:06:07;10.30;;;2.83;;
37895;SDS011;23733;53.254;10.430;2023-06-10T04:08:33;8.03;;;2.50;;
37895;SDS011;23733;53.254;10.430;2023-06-10T04:10:59;6.70;;;2.80;;
37895;SDS011;23733;53.254;10.430;2023-06-10T04:13:25;5.10;;;2.57;;
37895;SDS011;23733;53.254;10.430;2023-06-10T04:15:51;11.37;;;2.77;;
37895;SDS011;23733;53.254;10.430;2023-06-10T04:18:17;6.47;;;2.80;;
37895;SDS011;23733;53.254;10.430;2023-06-10T04:20:43;8.23;;;2.33;;
37895;SDS011;23733;53.254;10.430;2023-06-10T04:23:10;8.30;;;3.00;;
37895;SDS011;23733;53.254;10.430;2023-06-10T04:25:36;6.37;;;2.80;;
37895;SDS011;23733;53.254;10.430;2023-06-10T04:28:02;6.23;;;2.37;;
37895;SDS011;23733;53.254;10.430;2023-06-10T04:30:28;6.60;;;2.23;;
37895;SDS011;23733;53.254;10.430;2023-06-10T04:32:56;9.10;;;2.90;;
37895;SDS011;23733;53.254;10.430;2023-06-10T04:35:22;9.43;;;2.50;;
37895;SDS011;23733;53.254;10.430;2023-06-10T04:37:49;8.40;;;2.47;;
37895;SDS011;23733;53.254;10.430;2023-06-10T04:40:15;7.53;;;2.83;;
37895;SDS011;23733;53.254;10.430;2023-06-10T04:42:41;7.83;;;2.90;;
37895;SDS011;23733;53.254;10.430;2023-06-10T04:45:07;7.17;;;2.50;;
37895;SDS011;23733;53.254;10.430;2023-06-10T04:47:34;6.67;;;2.47;;
37895;SDS011;23733;53.254;10.430;2023-06-10T04:50:00;7.87;;;2.60;;
37895;SDS011;23733;53.254;10.430;2023-06-10T04:52:26;6.63;;;2.63;;
37895;SDS011;23733;53.254;10.430;2023-06-10T04:54:53;5.73;;;2.50;;
37895;SDS011;23733;53.254;10.430;2023-06-10T04:57:19;5.80;;;2.53;;
37895;SDS011;23733;53.254;10.430;2023-06-10T04:59:46;5.97;;;2.53;;
37895;SDS011;23733;53.254;10.430;2023-06-10T05:02:12;6.37;;;2.23;;
37895;SDS011;23733;53.254;10.430;2023-06-10T05:04:38;7.53;;;2.70;;
37895;SDS011;23733;53.254;10.430;2023-06-10T05:07:05;8.07;;;2.80;;
37895;SDS011;23733;53.254;10.430;2023-06-10T05:09:31;10.77;;;2.73;;
37895;SDS011;23733;53.254;10.430;2023-06-10T05:11:58;6.23;;;2.40;;
37895;SDS011;23733;53.254;10.430;2023-06-10T05:14:24;7.27;;;2.60;;
37895;SDS011;23733;53.254;10.430;2023-06-10T05:16:51;6.53;;;2.30;;
37895;SDS011;23733;53.254;10.430;2023-06-10T05:19:17;6.90;;;2.43;;
37895;SDS011;23733;53.254;10.430;2023-06-10T05:21:44;8.13;;;2.43;;
37895;SDS011;23733;53.254;10.430;2023-06-10T05:24:11;8.73;;;2.77;;
37895;SDS011;23733;53.254;10.430;2023-06-10T05:26:37;5.87;;;2.57;;
37895;SDS011;23733;53.254;10.430;2023-06-10T05:29:04;8.60;;;2.90;;
37895;SDS011;23733;53.254;10.430;2023-06-10T05:31:31;9.60;;;2.33;;
37895;SDS011;23733;53.254;10.430;2023-06-10T05:33:57;10.97;;;2.43;;
37895;SDS011;23733;53.254;10.430;2023-06-10T05:36:24;11.23;;;3.00;;
37895;SDS011;23733;53.254;10.430;2023-06-10T05:38:53;7.30;;;2.60;;
37895;SDS011;23733;53.254;10.430;2023-06-10T05:41:19;7.87;;;2.63;;
37895;SDS011;23733;53.254;10.430;2023-06-10T05:43:46;8.57;;;2.83;;
37895;SDS011;23733;53.254;10.430;2023-06-10T05:46:12;11.33;;;2.70;;
37895;SDS011;23733;53.254;10.430;2023-06-10T05:48:38;8.00;;;2.87;;
37895;SDS011;23733;53.254;10.430;2023-06-10T05:51:04;7.87;;;2.40;;
37895;SDS011;23733;53.254;10.430;2023-06-10T05:53:30;6.60;;;2.40;;
37895;SDS011;23733;53.254;10.430;2023-06-10T05:55:57;9.53;;;2.40;;
37895;SDS011;23733;53.254;10.430;2023-06-10T05:58:24;11.77;;;3.47;;
37895;SDS011;23733;53.254;10.430;2023-06-10T06:00:50;6.00;;;2.60;;
37895;SDS011;23733;53.254;10.430;2023-06-10T06:03:17;9.40;;;2.60;;
37895;SDS011;23733;53.254;10.430;2023-06-10T06:05:43;7.80;;;2.93;;
37895;SDS011;23733;53.254;10.430;2023-06-10T06:08:09;6.33;;;2.77;;
37895;SDS011;23733;53.254;10.430;2023-06-10T06:10:35;6.50;;;2.27;;
37895;SDS011;23733;53.254;10.430;2023-06-10T06:13:02;10.07;;;2.53;;
37895;SDS011;23733;53.254;10.430;2023-06-10T06:15:28;8.77;;;2.83;;
37895;SDS011;23733;53.254;10.430;2023-06-10T06:17:54;6.57;;;2.37;;
37895;SDS011;23733;53.254;10.430;2023-06-10T06:20:21;9.60;;;2.50;;
37895;SDS011;23733;53.254;10.430;2023-06-10T06:22:48;6.80;;;2.47;;
37895;SDS011;23733;53.254;10.430;2023-06-10T06:25:14;9.60;;;2.67;;
37895;SDS011;23733;53.254;10.430;2023-06-10T06:27:41;6.20;;;2.40;;
37895;SDS011;23733;53.254;10.430;2023-06-10T06:30:07;5.97;;;2.00;;
37895;SDS011;23733;53.254;10.430;2023-06-10T06:32:34;12.77;;;2.70;;
37895;SDS011;23733;53.254;10.430;2023-06-10T06:35:00;9.83;;;2.53;;
37895;SDS011;23733;53.254;10.430;2023-06-10T06:37:26;6.23;;;2.40;;
37895;SDS011;23733;53.254;10.430;2023-06-10T06:39:53;9.03;;;2.97;;
37895;SDS011;23733;53.254;10.430;2023-06-10T06:42:20;9.70;;;2.67;;
37895;SDS011;23733;53.254;10.430;2023-06-10T06:44:47;9.07;;;2.23;;
37895;SDS011;23733;53.254;10.430;2023-06-10T06:47:13;5.57;;;2.23;;
37895;SDS011;23733;53.254;10.430;2023-06-10T06:49:40;10.77;;;2.43;;
37895;SDS011;23733;53.254;10.430;2023-06-10T06:52:06;9.67;;;2.73;;
37895;SDS011;23733;53.254;10.430;2023-06-10T06:54:32;10.07;;;2.73;;
37895;SDS011;23733;53.254;10.430;2023-06-10T06:56:59;5.53;;;2.40;;
37895;SDS011;23733;53.254;10.430;2023-06-10T06:59:25;11.33;;;2.80;;
37895;SDS011;23733;53.254;10.430;2023-06-10T07:01:51;9.20;;;2.63;;
37895;SDS011;23733;53.254;10.430;2023-06-10T07:04:19;6.40;;;2.83;;
37895;SDS011;23733;53.254;10.430;2023-06-10T07:06:47;7.10;;;2.60;;
37895;SDS011;23733;53.254;10.430;2023-06-10T07:09:13;8.87;;;3.00;;
37895;SDS011;23733;53.254;10.430;2023-06-10T07:11:39;7.67;;;2.37;;
37895;SDS011;23733;53.254;10.430;2023-06-10T07:14:06;6.73;;;3.00;;
37895;SDS011;23733;53.254;10.430;2023-06-10T07:16:32;7.70;;;2.43;;
37895;SDS011;23733;53.254;10.430;2023-06-10T07:18:58;8.70;;;2.43;;
37895;SDS011;23733;53.254;10.430;2023-06-10T07:21:24;10.50;;;2.60;;
37895;SDS011;23733;53.254;10.430;2023-06-10T07:23:50;6.47;;;2.43;;
37895;SDS011;23733;53.254;10.430;2023-06-10T07:26:21;10.60;;;2.50;;
37895;SDS011;23733;53.254;10.430;2023-06-10T07:28:47;7.77;;;2.50;;
37895;SDS011;23733;53.254;10.430;2023-06-10T07:31:13;5.70;;;2.47;;
37895;SDS011;23733;53.254;10.430;2023-06-10T07:33:39;6.27;;;2.20;;
37895;SDS011;23733;53.254;10.430;2023-06-10T07:36:07;5.83;;;2.20;;
37895;SDS011;23733;53.254;10.430;2023-06-10T07:38:33;5.60;;;2.60;;
37895;SDS011;23733;53.254;10.430;2023-06-10T07:40:59;7.47;;;2.40;;
37895;SDS011;23733;53.254;10.430;2023-06-10T07:43:25;9.13;;;2.80;;
37895;SDS011;23733;53.254;10.430;2023-06-10T07:45:51;12.03;;;2.43;;
37895;SDS011;23733;53.254;10.430;2023-06-10T07:48:17;9.03;;;2.63;;
37895;SDS011;23733;53.254;10.430;2023-06-10T07:50:43;4.70;;;2.20;;
37895;SDS011;23733;53.254;10.430;2023-06-10T07:53:10;7.50;;;2.50;;
37895;SDS011;23733;53.254;10.430;2023-06-10T07:55:36;9.30;;;2.97;;
37895;SDS011;23733;53.254;10.430;2023-06-10T07:58:02;9.50;;;2.60;;
37895;SDS011;23733;53.254;10.430;2023-06-10T08:00:28;6.20;;;2.70;;
37895;SDS011;23733;53.254;10.430;2023-06-10T08:02:54;6.00;;;2.37;;
37895;SDS011;23733;53.254;10.430;2023-06-10T08:05:21;12.07;;;2.87;;
37895;SDS011;23733;53.254;10.430;2023-06-10T08:07:47;7.97;;;2.57;;
37895;SDS011;23733;53.254;10.430;2023-06-10T08:10:13;8.90;;;2.50;;
37895;SDS011;23733;53.254;10.430;2023-06-10T08:12:39;6.73;;;2.53;;
37895;SDS011;23733;53.254;10.430;2023-06-10T08:15:05;7.23;;;2.70;;
37895;SDS011;23733;53.254;10.430;2023-06-10T08:17:32;7.57;;;2.90;;
37895;SDS011;23733;53.254;10.430;2023-06-10T08:19:58;8.27;;;2.50;;
37895;SDS011;23733;53.254;10.430;2023-06-10T08:22:24;7.87;;;2.80;;
37895;SDS011;23733;53.254;10.430;2023-06-10T08:24:50;8.67;;;2.67;;
37895;SDS011;23733;53.254;10.430;2023-06-10T08:27:16;8.07;;;2.67;;
37895;SDS011;23733;53.254;10.430;2023-06-10T08:29:42;9.63;;;2.80;;
37895;SDS011;23733;53.254;10.430;2023-06-10T08:32:08;8.07;;;2.30;;
37895;SDS011;23733;53.254;10.430;2023-06-10T08:34:34;7.27;;;2.90;;
37895;SDS011;23733;53.254;10.430;2023-06-10T08:37:01;7.30;;;2.93;;
37895;SDS011;23733;53.254;10.430;2023-06-10T08:39:28;5.63;;;2.70;;
37895;SDS011;23733;53.254;10.430;2023-06-10T08:42:00;11.17;;;2.93;;
37895;SDS011;23733;53.254;10.430;2023-06-10T08:44:38;7.10;;;2.80;;
37895;SDS011;23733;53.254;10.430;2023-06-10T08:47:15;8.43;;;2.57;;
37895;SDS011;23733;53.254;10.430;2023-06-10T08:49:43;8.03;;;2.77;;
37895;SDS011;23733;53.254;10.430;2023-06-10T08:52:17;11.20;;;2.80;;
37895;SDS011;23733;53.254;10.430;2023-06-10T08:54:46;7.47;;;2.70;;
37895;SDS011;23733;53.254;10.430;2023-06-10T08:57:15;7.30;;;2.93;;
37895;SDS011;23733;53.254;10.430;2023-06-10T08:59:41;8.17;;;2.83;;
37895;SDS011;23733;53.254;10.430;2023-06-10T09:02:08;6.83;;;2.80;;
37895;SDS011;23733;53.254;10.430;2023-06-10T09:04:35;9.13;;;3.10;;
37895;SDS011;23733;53.254;10.430;2023-06-10T09:07:02;10.13;;;3.33;;
37895;SDS011;23733;53.254;10.430;2023-06-10T09:09:28;7.57;;;3.13;;
37895;SDS011;23733;53.254;10.430;2023-06-10T09:11:58;7.50;;;2.80;;
37895;SDS011;23733;53.254;10.430;2023-06-10T09:14:25;6.77;;;2.80;;
37895;SDS011;23733;53.254;10.430;2023-06-10T09:16:51;12.50;;;3.53;;
37895;SDS011;23733;53.254;10.430;2023-06-10T09:19:17;11.17;;;3.10;;
37895;SDS011;23733;53.254;10.430;2023-06-10T09:21:46;4.80;;;2.60;;
37895;SDS011;23733;53.254;10.430;2023-06-10T09:24:12;11.80;;;3.37;;
37895;SDS011;23733;53.254;10.430;2023-06-10T09:26:39;5.47;;;2.70;;
37895;SDS011;23733;53.254;10.430;2023-06-10T09:29:06;5.30;;;2.70;;
37895;SDS011;23733;53.254;10.430;2023-06-10T09:31:37;8.90;;;2.97;;
37895;SDS011;23733;53.254;10.430;2023-06-10T09:34:07;7.53;;;2.83;;
37895;SDS011;23733;53.254;10.430;2023-06-10T09:36:35;5.27;;;2.87;;
37895;SDS011;23733;53.254;10.430;2023-06-10T09:39:01;11.67;;;2.97;;
37895;SDS011;23733;53.254;10.430;2023-06-10T09:41:34;8.70;;;3.10;;
37895;SDS011;23733;53.254;10.430;2023-06-10T09:44:09;8.37;;;3.20;;
37895;SDS011;23733;53.254;10.430;2023-06-10T09:46:40;6.90;;;3.13;;
37895;SDS011;23733;53.254;10.430;2023-06-10T09:49:07;7.33;;;3.13;;
37895;SDS011;23733;53.254;10.430;2023-06-10T09:51:33;6.57;;;3.03;;
37895;SDS011;23733;53.254;10.430;2023-06-10T09:53:59;9.73;;;2.80;;
37895;SDS011;23733;53.254;10.430;2023-06-10T09:56:35;9.40;;;3.33;;
37895;SDS011;23733;53.254;10.430;2023-06-10T09:59:01;7.23;;;3.40;;
37895;SDS011;23733;53.254;10.430;2023-06-10T10:01:30;7.97;;;3.17;;
37895;SDS011;23733;53.254;10.430;2023-06-10T10:03:57;6.93;;;3.10;;
37895;SDS011;23733;53.254;10.430;2023-06-10T10:06:23;7.17;;;3.27;;
37895;SDS011;23733;53.254;10.430;2023-06-10T10:08:50;11.57;;;3.57;;
37895;SDS011;23733;53.254;10.430;2023-06-10T10:11:17;6.77;;;3.50;;
37895;SDS011;23733;53.254;10.430;2023-06-10T10:13:45;7.83;;;3.10;;
37895;SDS011;23733;53.254;10.430;2023-06-10T10:16:17;7.40;;;3.00;;
37895;SDS011;23733;53.254;10.430;2023-06-10T10:18:46;8.93;;;3.20;;
37895;SDS011;23733;53.254;10.430;2023-06-10T10:21:13;6.37;;;3.30;;
37895;SDS011;23733;53.254;10.430;2023-06-10T10:23:51;7.47;;;3.20;;
37895;SDS011;23733;53.254;10.430;2023-06-10T10:26:19;11.83;;;3.47;;
37895;SDS011;23733;53.254;10.430;2023-06-10T10:28:49;6.97;;;3.03;;
37895;SDS011;23733;53.254;10.430;2023-06-10T10:31:18;8.13;;;3.20;;
37895;SDS011;23733;53.254;10.430;2023-06-10T10:36:17;6.70;;;3.17;;
37895;SDS011;23733;53.254;10.430;2023-06-10T10:38:45;9.33;;;3.37;;
37895;SDS011;23733;53.254;10.430;2023-06-10T10:41:11;9.63;;;3.37;;
37895;SDS011;23733;53.254;10.430;2023-06-10T10:43:38;11.40;;;3.90;;
37895;SDS011;23733;53.254;10.430;2023-06-10T10:46:09;9.77;;;3.50;;
37895;SDS011;23733;53.254;10.430;2023-06-10T10:48:37;7.37;;;3.37;;
37895;SDS011;23733;53.254;10.430;2023-06-10T10:51:04;7.70;;;3.43;;
37895;SDS011;23733;53.254;10.430;2023-06-10T10:53:30;8.03;;;3.67;;
37895;SDS011;23733;53.254;10.430;2023-06-10T10:58:25;8.90;;;3.20;;
37895;SDS011;23733;53.254;10.430;2023-06-10T11:00:52;8.53;;;3.57;;
37895;SDS011;23733;53.254;10.430;2023-06-10T11:03:18;7.13;;;3.53;;
37895;SDS011;23733;53.254;10.430;2023-06-10T11:05:45;7.80;;;3.47;;
37895;SDS011;23733;53.254;10.430;2023-06-10T11:08:15;9.40;;;3.20;;
37895;SDS011;23733;53.254;10.430;2023-06-10T11:10:50;9.20;;;3.33;;
37895;SDS011;23733;53.254;10.430;2023-06-10T11:13:21;13.47;;;3.57;;
37895;SDS011;23733;53.254;10.430;2023-06-10T11:15:51;10.73;;;3.87;;
37895;SDS011;23733;53.254;10.430;2023-06-10T11:23:10;6.20;;;3.50;;
37895;SDS011;23733;53.254;10.430;2023-06-10T11:25:40;13.10;;;3.83;;
37895;SDS011;23733;53.254;10.430;2023-06-10T11:28:19;6.80;;;3.53;;
37895;SDS011;23733;53.254;10.430;2023-06-10T11:30:45;7.07;;;3.23;;
37895;SDS011;23733;53.254;10.430;2023-06-10T11:33:16;8.97;;;3.80;;
37895;SDS011;23733;53.254;10.430;2023-06-10T11:35:43;8.50;;;3.30;;
37895;SDS011;23733;53.254;10.430;2023-06-10T11:38:09;5.87;;;3.30;;
37895;SDS011;23733;53.254;10.430;2023-06-10T11:40:39;8.47;;;3.70;;
37895;SDS011;23733;53.254;10.430;2023-06-10T11:43:06;5.93;;;3.47;;
37895;SDS011;23733;53.254;10.430;2023-06-10T11:45:32;8.43;;;3.63;;
37895;SDS011;23733;53.254;10.430;2023-06-10T11:47:59;7.85;;;3.50;;
37895;SDS011;23733;53.254;10.430;2023-06-10T11:50:32;6.22;;;3.38;;
37895;SDS011;23733;53.254;10.430;2023-06-10T11:52:59;8.85;;;3.55;;
37895;SDS011;23733;53.254;10.430;2023-06-10T11:55:26;6.67;;;3.40;;
37895;SDS011;23733;53.254;10.430;2023-06-10T11:58:03;7.30;;;3.40;;
37895;SDS011;23733;53.254;10.430;2023-06-10T12:00:30;7.78;;;3.40;;
37895;SDS011;23733;53.254;10.430;2023-06-10T12:02:56;12.20;;;3.35;;
37895;SDS011;23733;53.254;10.430;2023-06-10T12:05:23;6.00;;;3.47;;
37895;SDS011;23733;53.254;10.430;2023-06-10T12:07:49;7.80;;;3.67;;
37895;SDS011;23733;53.254;10.430;2023-06-10T12:10:16;7.07;;;3.20;;
37895;SDS011;23733;53.254;10.430;2023-06-10T12:12:42;5.18;;;3.25;;
37895;SDS011;23733;53.254;10.430;2023-06-10T12:15:09;9.32;;;3.40;;
37895;SDS011;23733;53.254;10.430;2023-06-10T12:17:36;5.22;;;3.63;;
37895;SDS011;23733;53.254;10.430;2023-06-10T12:20:04;9.38;;;3.30;;
37895;SDS011;23733;53.254;10.430;2023-06-10T12:25:04;8.32;;;3.63;;
37895;SDS011;23733;53.254;10.430;2023-06-10T12:27:32;5.43;;;3.45;;
37895;SDS011;23733;53.254;10.430;2023-06-10T12:29:59;8.30;;;3.40;;
37895;SDS011;23733;53.254;10.430;2023-06-10T12:32:40;6.88;;;3.63;;
37895;SDS011;23733;53.254;10.430;2023-06-10T12:35:07;7.37;;;3.77;;
37895;SDS011;23733;53.254;10.430;2023-06-10T12:37:34;6.15;;;3.53;;
37895;SDS011;23733;53.254;10.430;2023-06-10T12:40:03;7.47;;;3.65;;
37895;SDS011;23733;53.254;10.430;2023-06-10T12:42:31;8.98;;;3.20;;
37895;SDS011;23733;53.254;10.430;2023-06-10T12:45:00;11.32;;;3.72;;
37895;SDS011;23733;53.254;10.430;2023-06-10T12:47:34;10.73;;;3.55;;
37895;SDS011;23733;53.254;10.430;2023-06-10T12:50:01;15.43;;;3.40;;
37895;SDS011;23733;53.254;10.430;2023-06-10T12:52:28;8.93;;;3.53;;
37895;SDS011;23733;53.254;10.430;2023-06-10T12:54:54;9.90;;;3.70;;
37895;SDS011;23733;53.254;10.430;2023-06-10T12:57:21;9.27;;;3.73;;
37895;SDS011;23733;53.254;10.430;2023-06-10T12:59:47;5.65;;;3.05;;
37895;SDS011;23733;53.254;10.430;2023-06-10T13:02:21;8.32;;;3.35;;
37895;SDS011;23733;53.254;10.430;2023-06-10T13:04:52;5.55;;;3.15;;
37895;SDS011;23733;53.254;10.430;2023-06-10T13:07:19;6.05;;;3.40;;
37895;SDS011;23733;53.254;10.430;2023-06-10T13:09:45;7.47;;;3.33;;
37895;SDS011;23733;53.254;10.430;2023-06-10T13:12:14;9.02;;;3.45;;
37895;SDS011;23733;53.254;10.430;2023-06-10T13:14:40;11.90;;;3.78;;
37895;SDS011;23733;53.254;10.430;2023-06-10T13:17:06;5.22;;;2.95;;
37895;SDS011;23733;53.254;10.430;2023-06-10T13:19:35;6.40;;;3.72;;
37895;SDS011;23733;53.254;10.430;2023-06-10T13:22:02;7.15;;;3.35;;
37895;SDS011;23733;53.254;10.430;2023-06-10T13:24:28;5.28;;;2.83;;
37895;SDS011;23733;53.254;10.430;2023-06-10T13:26:54;9.48;;;3.83;;
37895;SDS011;23733;53.254;10.430;2023-06-10T13:29:21;7.35;;;3.50;;
37895;SDS011;23733;53.254;10.430;2023-06-10T13:31:47;6.97;;;3.45;;
37895;SDS011;23733;53.254;10.430;2023-06-10T13:34:13;8.90;;;3.63;;
37895;SDS011;23733;53.254;10.430;2023-06-10T13:36:40;5.30;;;3.20;;
37895;SDS011;23733;53.254;10.430;2023-06-10T13:39:06;4.80;;;3.15;;
37895;SDS011;23733;53.254;10.430;2023-06-10T13:41:32;7.30;;;3.00;;
37895;SDS011;23733;53.254;10.430;2023-06-10T13:43:58;6.35;;;3.50;;
37895;SDS011;23733;53.254;10.430;2023-06-10T13:46:24;6.82;;;3.67;;
37895;SDS011;23733;53.254;10.430;2023-06-10T13:48:51;5.90;;;3.22;;
37895;SDS011;23733;53.254;10.430;2023-06-10T13:51:17;9.95;;;3.40;;
37895;SDS011;23733;53.254;10.430;2023-06-10T13:53:43;8.73;;;3.47;;
37895;SDS011;23733;53.254;10.430;2023-06-10T13:56:11;7.30;;;3.30;;
37895;SDS011;23733;53.254;10.430;2023-06-10T13:58:37;6.60;;;3.25;;
37895;SDS011;23733;53.254;10.430;2023-06-10T14:01:05;5.43;;;3.30;;
37895;SDS011;23733;53.254;10.430;2023-06-10T14:03:31;9.85;;;3.60;;
37895;SDS011;23733;53.254;10.430;2023-06-10T14:05:57;7.97;;;3.60;;
37895;SDS011;23733;53.254;10.430;2023-06-10T14:08:23;10.68;;;3.65;;
37895;SDS011;23733;53.254;10.430;2023-06-10T14:10:49;6.80;;;3.80;;
37895;SDS011;23733;53.254;10.430;2023-06-10T14:13:18;7.70;;;3.83;;
37895;SDS011;23733;53.254;10.430;2023-06-10T14:15:44;8.30;;;3.40;;
37895;SDS011;23733;53.254;10.430;2023-06-10T14:18:11;4.75;;;3.50;;
37895;SDS011;23733;53.254;10.430;2023-06-10T14:20:37;8.85;;;4.18;;
37895;SDS011;23733;53.254;10.430;2023-06-10T14:23:03;7.57;;;3.28;;
37895;SDS011;23733;53.254;10.430;2023-06-10T14:25:29;5.28;;;3.40;;
37895;SDS011;23733;53.254;10.430;2023-06-10T14:27:55;5.00;;;3.20;;
37895;SDS011;23733;53.254;10.430;2023-06-10T14:30:23;6.60;;;3.63;;
37895;SDS011;23733;53.254;10.430;2023-06-10T14:32:49;12.45;;;3.33;;
37895;SDS011;23733;53.254;10.430;2023-06-10T14:35:15;4.30;;;3.05;;
37895;SDS011;23733;53.254;10.430;2023-06-10T14:37:41;7.38;;;3.83;;
37895;SDS011;23733;53.254;10.430;2023-06-10T14:40:07;6.53;;;3.50;;
37895;SDS011;23733;53.254;10.430;2023-06-10T14:42:33;7.38;;;3.53;;
37895;SDS011;23733;53.254;10.430;2023-06-10T14:44:59;6.13;;;3.40;;
37895;SDS011;23733;53.254;10.430;2023-06-10T14:47:25;5.57;;;3.22;;
37895;SDS011;23733;53.254;10.430;2023-06-10T14:49:51;7.95;;;4.18;;
37895;SDS011;23733;53.254;10.430;2023-06-10T14:52:17;6.22;;;3.45;;